Divnogorsk, Russia
Current Conditions -  °F | °C
As of 6:00 PM on Sunday 23 Nov 2014 (Local Time) from UNKL Reporting Station
Snow Showers Snow Showers  
Wind Chill: 18°   Ceiling: 8300
Heat Index: 27°   Visibility: 6mi
Dew Point: 18°   Wind: 9mph
Humidity: 69%   Direction: 210°SSW
Pressure: 29.62"   Gusts: 18mph
Location:  55.96°N, 92.36°E
Report Text: UNKL 231100Z 21004G08MPS 180V250 9000 -SHSN SCT027CB OVC083M03/M08 Q1003 NOSIG RMK QFE727 29////50
Loading
Personal Weather Stations






























Interactive Weather Map New forecast layout! Learn more

10-Day Weather Forecast

Advertisements
Track Severe Weather on mobile